Saint Libory, NE (68872)

5:51 AM CDT on October 01, 2014 (GMT -0500)
Central Nebraska Regional | Change Station
CLOSE
Current Station
Airport
Location: Grand Island,
Elevation: 1857 ft
Nearby Weather Stations

Elev 1857 ft 40.96 °N, 98.31 °W | Updated 37 minutes ago

Fog
Fog
61 °F
Feels Like 61 °F
N
0
Wind Variable Wind from North

Today
High -- | Low -- °F
--% Chance of Precip.
Yesterday
High -- | Low -- °F
Precip. -- in
7:30 AM 7:15 PM
Waxing Crescent, 46% visible
Pressure 29.72 in
Visibility 0.2 miles
Clouds
Dew Point 60 °F
Humidity 97%
Rainfall 0.00 in
Snow Depth Not available.
UV Not available.
Pollen 3.10 out of 12
Air Quality Not available.
Flu Activity Not available.
SPECI KGRI 011014Z AUTO 00000KT 1/4SM R35/1800V2400FT FG VV002 16/16 A2972 RMK AO2 T01610156

More Conditions Fewer Conditions

Pressure 29.72 in
Visibility 0.2 miles
Clouds
Dew Point 60 °F
Humidity 97%
Rainfall 0.00 in
Snow Depth Not available.
UV Not available.
Pollen 3.10 out of 12
Air Quality Not available.
Flu Activity Not available.
SPECI KGRI 011014Z AUTO 00000KT 1/4SM R35/1800V2400FT FG VV002 16/16 A2972 RMK AO2 T01610156

More Conditions Fewer Conditions

10-Day Weather Forecast

Almanac

Astronomy

Oct. 01, 2014 Rise Set
Actual Time 7:30 AM CDT 7:15 PM CDT
Civil Twilight 7:02 AM CDT 7:42 PM CDT
Nautical Twilight 6:30 AM CDT 8:14 PM CDT
Astronomical Twilight 5:58 AM CDT 8:46 PM CDT
Moon 2:34 PM CDT No Moon Set
Length of Visible Light 12h 40m
Length of Day
11h 45m
Tomorrow will be 2m 42s shorter.
Waxing Crescent, 46% of the Moon is Illuminated
Today
Waxing Crescent
Oct 1
First Quarter
Oct 8
Full
Oct 15
Last Quarter
Oct 23
New

Today's Extremes

State Highs State Lows

Community

WunderPhotos

Upload Photos

1,757,910 photos uploaded!

WunderBlogs® & News

Nearby

Snow Depth

Station Depth Elevation
No new snow has been reported.

Earthquake Activity

City Distance Mag. Time & Date
No recent earthquake activity has been reported nearby.
Minimum magnitude displayed is 2.5.

Coastal Water Temperatures

Place Temperature
No Stations Reporting

Nearby Weather Stations